sensor_id;sensor_type;location;lat;lon;timestamp;temperature;humidity
61591;DHT22;57639;52.410;-1.966;2023-03-11T00:01:50;16.10;43.40
61591;DHT22;57639;52.410;-1.966;2023-03-11T00:04:54;16.10;43.80
61591;DHT22;57639;52.410;-1.966;2023-03-11T00:08:01;16.00;43.70
61591;DHT22;57639;52.410;-1.966;2023-03-11T00:11:07;16.00;43.70
61591;DHT22;57639;52.410;-1.966;2023-03-11T00:14:16;16.00;43.90
61591;DHT22;57639;52.410;-1.966;2023-03-11T00:17:22;15.90;44.10
61591;DHT22;57639;52.410;-1.966;2023-03-11T00:20:28;15.90;44.00
61591;DHT22;57639;52.410;-1.966;2023-03-11T00:23:34;15.80;44.00
61591;DHT22;57639;52.410;-1.966;2023-03-11T00:26:40;15.80;44.10
61591;DHT22;57639;52.410;-1.966;2023-03-11T00:29:49;15.80;44.10
61591;DHT22;57639;52.410;-1.966;2023-03-11T00:32:57;15.70;44.30
61591;DHT22;57639;52.410;-1.966;2023-03-11T00:36:03;15.70;44.30
61591;DHT22;57639;52.410;-1.966;2023-03-11T00:39:09;15.70;44.30
61591;DHT22;57639;52.410;-1.966;2023-03-11T00:42:15;15.60;44.20
61591;DHT22;57639;52.410;-1.966;2023-03-11T00:45:25;15.60;44.20
61591;DHT22;57639;52.410;-1.966;2023-03-11T00:48:31;15.60;44.40
61591;DHT22;57639;52.410;-1.966;2023-03-11T00:51:37;15.60;44.40
61591;DHT22;57639;52.410;-1.966;2023-03-11T00:54:41;15.50;44.40
61591;DHT22;57639;52.410;-1.966;2023-03-11T00:57:50;15.50;44.30
61591;DHT22;57639;52.410;-1.966;2023-03-11T01:01:00;15.50;44.40
61591;DHT22;57639;52.410;-1.966;2023-03-11T01:04:06;15.50;44.40
61591;DHT22;57639;52.410;-1.966;2023-03-11T01:07:10;15.50;44.50
61591;DHT22;57639;52.410;-1.966;2023-03-11T01:10:16;15.40;44.60
61591;DHT22;57639;52.410;-1.966;2023-03-11T01:13:23;15.40;44.60
61591;DHT22;57639;52.410;-1.966;2023-03-11T01:16:32;15.40;44.50
61591;DHT22;57639;52.410;-1.966;2023-03-11T01:19:38;15.40;44.60
61591;DHT22;57639;52.410;-1.966;2023-03-11T01:22:44;15.40;44.60
61591;DHT22;57639;52.410;-1.966;2023-03-11T01:25:48;15.30;44.50
61591;DHT22;57639;52.410;-1.966;2023-03-11T01:28:54;15.40;44.30
61591;DHT22;57639;52.410;-1.966;2023-03-11T01:32:04;15.30;44.10
61591;DHT22;57639;52.410;-1.966;2023-03-11T01:35:11;15.40;44.10
61591;DHT22;57639;52.410;-1.966;2023-03-11T01:38:17;15.40;44.00
61591;DHT22;57639;52.410;-1.966;2023-03-11T01:41:23;15.30;43.90
61591;DHT22;57639;52.410;-1.966;2023-03-11T01:44:29;15.30;44.00
61591;DHT22;57639;52.410;-1.966;2023-03-11T01:47:39;15.30;43.90
61591;DHT22;57639;52.410;-1.966;2023-03-11T01:50:48;15.30;43.90
61591;DHT22;57639;52.410;-1.966;2023-03-11T01:53:56;15.30;43.90
61591;DHT22;57639;52.410;-1.966;2023-03-11T01:57:05;15.30;43.90
61591;DHT22;57639;52.410;-1.966;2023-03-11T02:00:13;15.20;44.00
61591;DHT22;57639;52.410;-1.966;2023-03-11T02:03:26;15.20;44.10
61591;DHT22;57639;52.410;-1.966;2023-03-11T02:06:33;15.20;44.00
61591;DHT22;57639;52.410;-1.966;2023-03-11T02:09:37;15.10;44.10
61591;DHT22;57639;52.410;-1.966;2023-03-11T02:12:44;15.10;44.00
61591;DHT22;57639;52.410;-1.966;2023-03-11T02:15:51;15.10;44.10
61591;DHT22;57639;52.410;-1.966;2023-03-11T02:19:06;15.10;44.10
61591;DHT22;57639;52.410;-1.966;2023-03-11T02:22:17;15.10;44.10
61591;DHT22;57639;52.410;-1.966;2023-03-11T02:25:26;15.10;44.00
61591;DHT22;57639;52.410;-1.966;2023-03-11T02:28:37;15.10;44.10
61591;DHT22;57639;52.410;-1.966;2023-03-11T02:31:45;15.10;44.10
61591;DHT22;57639;52.410;-1.966;2023-03-11T02:34:51;15.00;44.20
61591;DHT22;57639;52.410;-1.966;2023-03-11T02:37:57;15.10;44.20
61591;DHT22;57639;52.410;-1.966;2023-03-11T02:41:05;15.10;44.20
61591;DHT22;57639;52.410;-1.966;2023-03-11T02:44:15;15.00;44.20
61591;DHT22;57639;52.410;-1.966;2023-03-11T02:47:21;15.00;44.20
61591;DHT22;57639;52.410;-1.966;2023-03-11T02:50:28;15.00;44.20
61591;DHT22;57639;52.410;-1.966;2023-03-11T02:53:40;15.00;44.20
61591;DHT22;57639;52.410;-1.966;2023-03-11T02:56:48;14.90;44.20
61591;DHT22;57639;52.410;-1.966;2023-03-11T02:59:57;14.90;44.20
61591;DHT22;57639;52.410;-1.966;2023-03-11T03:03:10;15.00;44.10
61591;DHT22;57639;52.410;-1.966;2023-03-11T03:06:16;15.00;44.10
61591;DHT22;57639;52.410;-1.966;2023-03-11T03:09:22;14.90;44.20
61591;DHT22;57639;52.410;-1.966;2023-03-11T03:12:28;14.90;44.20
61591;DHT22;57639;52.410;-1.966;2023-03-11T03:15:37;14.80;44.20
61591;DHT22;57639;52.410;-1.966;2023-03-11T03:18:43;14.80;44.30
61591;DHT22;57639;52.410;-1.966;2023-03-11T03:21:49;14.80;44.30
61591;DHT22;57639;52.410;-1.966;2023-03-11T03:24:55;14.80;44.30
61591;DHT22;57639;52.410;-1.966;2023-03-11T03:28:01;14.70;44.30
61591;DHT22;57639;52.410;-1.966;2023-03-11T03:31:10;14.80;44.30
61591;DHT22;57639;52.410;-1.966;2023-03-11T03:34:16;14.70;44.20
61591;DHT22;57639;52.410;-1.966;2023-03-11T03:37:22;14.70;44.20
61591;DHT22;57639;52.410;-1.966;2023-03-11T03:40:28;14.70;44.30
61591;DHT22;57639;52.410;-1.966;2023-03-11T03:43:34;14.70;44.30
61591;DHT22;57639;52.410;-1.966;2023-03-11T03:46:43;14.60;44.30
61591;DHT22;57639;52.410;-1.966;2023-03-11T03:49:49;14.60;44.30
61591;DHT22;57639;52.410;-1.966;2023-03-11T03:52:55;14.60;44.30
61591;DHT22;57639;52.410;-1.966;2023-03-11T03:56:02;14.60;44.30
61591;DHT22;57639;52.410;-1.966;2023-03-11T03:59:08;14.60;44.30
61591;DHT22;57639;52.410;-1.966;2023-03-11T04:02:17;14.60;44.10
61591;DHT22;57639;52.410;-1.966;2023-03-11T04:05:23;14.60;44.10
61591;DHT22;57639;52.410;-1.966;2023-03-11T04:08:29;14.60;44.10
61591;DHT22;57639;52.410;-1.966;2023-03-11T04:11:35;14.60;44.10
61591;DHT22;57639;52.410;-1.966;2023-03-11T04:14:42;14.50;44.10
61591;DHT22;57639;52.410;-1.966;2023-03-11T04:17:51;14.50;44.10
61591;DHT22;57639;52.410;-1.966;2023-03-11T04:20:57;14.50;44.10
61591;DHT22;57639;52.410;-1.966;2023-03-11T04:24:03;14.50;44.00
61591;DHT22;57639;52.410;-1.966;2023-03-11T04:27:09;14.40;43.90
61591;DHT22;57639;52.410;-1.966;2023-03-11T04:30:13;14.40;43.80
61591;DHT22;57639;52.410;-1.966;2023-03-11T04:33:22;14.40;43.90
61591;DHT22;57639;52.410;-1.966;2023-03-11T04:36:28;14.40;43.90
61591;DHT22;57639;52.410;-1.966;2023-03-11T04:39:34;14.50;43.90
61591;DHT22;57639;52.410;-1.966;2023-03-11T04:42:40;14.40;43.80
61591;DHT22;57639;52.410;-1.966;2023-03-11T04:45:49;14.40;43.80
61591;DHT22;57639;52.410;-1.966;2023-03-11T04:48:58;14.40;43.70
61591;DHT22;57639;52.410;-1.966;2023-03-11T04:52:02;14.40;43.70
61591;DHT22;57639;52.410;-1.966;2023-03-11T04:55:09;14.30;43.80
61591;DHT22;57639;52.410;-1.966;2023-03-11T04:58:15;14.30;43.70
61591;DHT22;57639;52.410;-1.966;2023-03-11T05:01:21;14.30;43.80
61591;DHT22;57639;52.410;-1.966;2023-03-11T05:04:30;14.30;43.80
61591;DHT22;57639;52.410;-1.966;2023-03-11T05:07:36;14.20;43.80
61591;DHT22;57639;52.410;-1.966;2023-03-11T05:10:42;14.20;43.90
61591;DHT22;57639;52.410;-1.966;2023-03-11T05:13:48;14.10;43.90
61591;DHT22;57639;52.410;-1.966;2023-03-11T05:16:55;14.20;44.00
61591;DHT22;57639;52.410;-1.966;2023-03-11T05:20:04;14.10;44.00
61591;DHT22;57639;52.410;-1.966;2023-03-11T05:23:11;14.10;44.00
61591;DHT22;57639;52.410;-1.966;2023-03-11T05:26:21;14.10;44.00
61591;DHT22;57639;52.410;-1.966;2023-03-11T05:29:28;14.10;44.00
61591;DHT22;57639;52.410;-1.966;2023-03-11T05:32:34;14.10;44.00
61591;DHT22;57639;52.410;-1.966;2023-03-11T05:35:43;14.10;44.00
61591;DHT22;57639;52.410;-1.966;2023-03-11T05:38:49;14.00;43.90
61591;DHT22;57639;52.410;-1.966;2023-03-11T05:41:55;14.00;44.00
61591;DHT22;57639;52.410;-1.966;2023-03-11T05:45:01;14.00;44.10
61591;DHT22;57639;52.410;-1.966;2023-03-11T05:48:07;14.00;44.10
61591;DHT22;57639;52.410;-1.966;2023-03-11T05:51:16;14.00;44.10
61591;DHT22;57639;52.410;-1.966;2023-03-11T05:54:22;14.00;44.00
61591;DHT22;57639;52.410;-1.966;2023-03-11T05:57:28;14.00;44.20
61591;DHT22;57639;52.410;-1.966;2023-03-11T06:00:34;13.90;44.20
61591;DHT22;57639;52.410;-1.966;2023-03-11T06:03:41;13.90;44.20
61591;DHT22;57639;52.410;-1.966;2023-03-11T06:06:50;13.90;44.20
61591;DHT22;57639;52.410;-1.966;2023-03-11T06:09:56;13.80;44.20
61591;DHT22;57639;52.410;-1.966;2023-03-11T06:13:02;13.80;44.20
61591;DHT22;57639;52.410;-1.966;2023-03-11T06:16:10;13.80;44.20
61591;DHT22;57639;52.410;-1.966;2023-03-11T06:19:16;13.80;44.20
61591;DHT22;57639;52.410;-1.966;2023-03-11T06:22:26;13.80;44.20
61591;DHT22;57639;52.410;-1.966;2023-03-11T06:25:32;13.80;44.10
61591;DHT22;57639;52.410;-1.966;2023-03-11T06:28:38;13.80;44.20
61591;DHT22;57639;52.410;-1.966;2023-03-11T06:31:44;13.80;44.10
61591;DHT22;57639;52.410;-1.966;2023-03-11T06:34:50;13.80;44.10
61591;DHT22;57639;52.410;-1.966;2023-03-11T06:37:59;13.80;44.00
61591;DHT22;57639;52.410;-1.966;2023-03-11T06:41:06;13.80;43.90
61591;DHT22;57639;52.410;-1.966;2023-03-11T06:44:12;13.80;43.90
61591;DHT22;57639;52.410;-1.966;2023-03-11T06:47:18;13.80;43.90
61591;DHT22;57639;52.410;-1.966;2023-03-11T06:50:25;13.70;43.80
61591;DHT22;57639;52.410;-1.966;2023-03-11T06:53:33;13.70;43.80
61591;DHT22;57639;52.410;-1.966;2023-03-11T06:56:39;13.80;43.80
61591;DHT22;57639;52.410;-1.966;2023-03-11T06:59:46;13.80;43.80
61591;DHT22;57639;52.410;-1.966;2023-03-11T07:02:52;13.70;43.80
61591;DHT22;57639;52.410;-1.966;2023-03-11T07:05:58;13.70;43.80
61591;DHT22;57639;52.410;-1.966;2023-03-11T07:09:07;13.70;43.90
61591;DHT22;57639;52.410;-1.966;2023-03-11T07:12:13;13.70;43.80
61591;DHT22;57639;52.410;-1.966;2023-03-11T07:15:19;13.80;43.70
61591;DHT22;57639;52.410;-1.966;2023-03-11T07:18:23;13.80;43.60
61591;DHT22;57639;52.410;-1.966;2023-03-11T07:21:30;14.00;43.50
61591;DHT22;57639;52.410;-1.966;2023-03-11T07:24:39;14.10;43.50
61591;DHT22;57639;52.410;-1.966;2023-03-11T07:27:45;14.40;43.30
61591;DHT22;57639;52.410;-1.966;2023-03-11T07:30:52;14.60;42.90
61591;DHT22;57639;52.410;-1.966;2023-03-11T07:34:00;14.90;42.60
61591;DHT22;57639;52.410;-1.966;2023-03-11T07:37:06;15.10;42.20
61591;DHT22;57639;52.410;-1.966;2023-03-11T07:40:15;15.40;41.90
61591;DHT22;57639;52.410;-1.966;2023-03-11T07:43:21;15.60;41.50
61591;DHT22;57639;52.410;-1.966;2023-03-11T07:46:28;15.70;41.20
61591;DHT22;57639;52.410;-1.966;2023-03-11T07:49:35;15.90;41.00
61591;DHT22;57639;52.410;-1.966;2023-03-11T07:52:41;16.10;40.70
61591;DHT22;57639;52.410;-1.966;2023-03-11T07:55:54;16.20;40.50
61591;DHT22;57639;52.410;-1.966;2023-03-11T07:59:02;16.40;40.30
61591;DHT22;57639;52.410;-1.966;2023-03-11T08:02:08;16.50;40.10
61591;DHT22;57639;52.410;-1.966;2023-03-11T08:05:15;16.60;39.90
61591;DHT22;57639;52.410;-1.966;2023-03-11T08:08:22;16.70;39.80
61591;DHT22;57639;52.410;-1.966;2023-03-11T08:11:32;16.80;39.60
61591;DHT22;57639;52.410;-1.966;2023-03-11T08:14:38;16.90;39.50
61591;DHT22;57639;52.410;-1.966;2023-03-11T08:17:45;16.90;39.40
61591;DHT22;57639;52.410;-1.966;2023-03-11T08:20:51;16.90;39.30
61591;DHT22;57639;52.410;-1.966;2023-03-11T08:23:58;16.90;39.40
61591;DHT22;57639;52.410;-1.966;2023-03-11T08:27:08;16.80;39.40
61591;DHT22;57639;52.410;-1.966;2023-03-11T08:30:14;16.80;39.30
61591;DHT22;57639;52.410;-1.966;2023-03-11T08:33:20;16.70;39.60
61591;DHT22;57639;52.410;-1.966;2023-03-11T08:36:27;16.60;39.50
61591;DHT22;57639;52.410;-1.966;2023-03-11T08:39:33;16.60;39.70
61591;DHT22;57639;52.410;-1.966;2023-03-11T08:42:41;16.60;39.70
61591;DHT22;57639;52.410;-1.966;2023-03-11T08:45:48;16.40;39.90
61591;DHT22;57639;52.410;-1.966;2023-03-11T08:48:54;16.40;39.90
61591;DHT22;57639;52.410;-1.966;2023-03-11T08:52:01;16.30;40.10
61591;DHT22;57639;52.410;-1.966;2023-03-11T08:55:08;16.20;40.10
61591;DHT22;57639;52.410;-1.966;2023-03-11T08:58:18;16.10;40.30
61591;DHT22;57639;52.410;-1.966;2023-03-11T09:01:24;16.10;40.30
61591;DHT22;57639;52.410;-1.966;2023-03-11T09:04:31;16.00;40.50
61591;DHT22;57639;52.410;-1.966;2023-03-11T09:07:37;15.90;40.50
61591;DHT22;57639;52.410;-1.966;2023-03-11T09:10:43;15.90;40.60
61591;DHT22;57639;52.410;-1.966;2023-03-11T09:13:52;15.80;40.80
61591;DHT22;57639;52.410;-1.966;2023-03-11T09:16:58;15.80;40.80
61591;DHT22;57639;52.410;-1.966;2023-03-11T09:20:05;15.70;40.90
61591;DHT22;57639;52.410;-1.966;2023-03-11T09:23:11;15.60;41.20
61591;DHT22;57639;52.410;-1.966;2023-03-11T09:26:17;15.60;41.20
61591;DHT22;57639;52.410;-1.966;2023-03-11T09:29:28;15.60;41.30
61591;DHT22;57639;52.410;-1.966;2023-03-11T09:32:34;15.50;41.60
61591;DHT22;57639;52.410;-1.966;2023-03-11T09:35:40;15.50;41.70
61591;DHT22;57639;52.410;-1.966;2023-03-11T09:38:47;15.40;42.10
61591;DHT22;57639;52.410;-1.966;2023-03-11T09:41:55;15.50;42.90
61591;DHT22;57639;52.410;-1.966;2023-03-11T09:45:10;15.40;42.90
61591;DHT22;57639;52.410;-1.966;2023-03-11T09:48:22;15.40;43.00
61591;DHT22;57639;52.410;-1.966;2023-03-11T09:51:35;15.40;43.60
61591;DHT22;57639;52.410;-1.966;2023-03-11T09:54:46;15.30;44.00
61591;DHT22;57639;52.410;-1.966;2023-03-11T09:57:53;15.30;44.30
61591;DHT22;57639;52.410;-1.966;2023-03-11T10:01:10;15.30;44.40
61591;DHT22;57639;52.410;-1.966;2023-03-11T10:04:22;15.30;44.20
61591;DHT22;57639;52.410;-1.966;2023-03-11T10:07:35;15.20;44.80
61591;DHT22;57639;52.410;-1.966;2023-03-11T10:10:46;15.20;44.60
61591;DHT22;57639;52.410;-1.966;2023-03-11T10:14:02;15.20;44.90
61591;DHT22;57639;52.410;-1.966;2023-03-11T10:17:34;15.10;45.00
61591;DHT22;57639;52.410;-1.966;2023-03-11T10:20:47;15.10;45.10
61591;DHT22;57639;52.410;-1.966;2023-03-11T10:24:08;15.00;45.10
61591;DHT22;57639;52.410;-1.966;2023-03-11T10:27:21;15.00;45.00
61591;DHT22;57639;52.410;-1.966;2023-03-11T10:30:32;15.00;45.00
61591;DHT22;57639;52.410;-1.966;2023-03-11T10:33:45;15.00;45.20
61591;DHT22;57639;52.410;-1.966;2023-03-11T10:36:57;14.90;45.30
61591;DHT22;57639;52.410;-1.966;2023-03-11T10:43:26;15.00;45.30
61591;DHT22;57639;52.410;-1.966;2023-03-11T10:46:32;15.00;45.20
61591;DHT22;57639;52.410;-1.966;2023-03-11T10:49:41;14.90;45.20
61591;DHT22;57639;52.410;-1.966;2023-03-11T10:53:03;15.00;45.10
61591;DHT22;57639;52.410;-1.966;2023-03-11T10:56:24;15.00;45.10
61591;DHT22;57639;52.410;-1.966;2023-03-11T10:59:32;14.90;44.90
61591;DHT22;57639;52.410;-1.966;2023-03-11T11:02:47;14.90;44.80
61591;DHT22;57639;52.410;-1.966;2023-03-11T11:06:02;14.90;44.80
61591;DHT22;57639;52.410;-1.966;2023-03-11T11:09:17;14.80;44.60
61591;DHT22;57639;52.410;-1.966;2023-03-11T11:12:23;14.70;44.70
61591;DHT22;57639;52.410;-1.966;2023-03-11T11:15:32;14.70;44.70
61591;DHT22;57639;52.410;-1.966;2023-03-11T11:18:43;14.70;44.60
61591;DHT22;57639;52.410;-1.966;2023-03-11T11:21:53;14.70;44.70
61591;DHT22;57639;52.410;-1.966;2023-03-11T11:24:59;14.70;44.50
61591;DHT22;57639;52.410;-1.966;2023-03-11T11:28:15;14.70;44.40
61591;DHT22;57639;52.410;-1.966;2023-03-11T11:31:23;14.70;44.40
61591;DHT22;57639;52.410;-1.966;2023-03-11T11:34:32;14.60;44.50
61591;DHT22;57639;52.410;-1.966;2023-03-11T11:37:43;14.60;44.40
61591;DHT22;57639;52.410;-1.966;2023-03-11T11:40:50;14.60;44.50
61591;DHT22;57639;52.410;-1.966;2023-03-11T11:43:59;14.60;44.50
61591;DHT22;57639;52.410;-1.966;2023-03-11T11:47:11;14.60;44.50
61591;DHT22;57639;52.410;-1.966;2023-03-11T11:50:25;14.60;44.60
61591;DHT22;57639;52.410;-1.966;2023-03-11T11:53:39;14.60;44.60
61591;DHT22;57639;52.410;-1.966;2023-03-11T11:56:47;14.60;44.60
61591;DHT22;57639;52.410;-1.966;2023-03-11T11:59:54;14.60;44.60
61591;DHT22;57639;52.410;-1.966;2023-03-11T12:03:22;14.60;44.60
61591;DHT22;57639;52.410;-1.966;2023-03-11T12:06:36;14.60;44.60
61591;DHT22;57639;52.410;-1.966;2023-03-11T12:09:52;14.60;44.80
61591;DHT22;57639;52.410;-1.966;2023-03-11T12:13:39;14.60;44.70
61591;DHT22;57639;52.410;-1.966;2023-03-11T12:16:54;14.60;44.50
61591;DHT22;57639;52.410;-1.966;2023-03-11T12:20:05;14.70;44.60
61591;DHT22;57639;52.410;-1.966;2023-03-11T12:23:27;14.90;44.40
61591;DHT22;57639;52.410;-1.966;2023-03-11T12:26:41;15.10;44.10
61591;DHT22;57639;52.410;-1.966;2023-03-11T12:29:51;15.40;43.70
61591;DHT22;57639;52.410;-1.966;2023-03-11T12:33:02;15.60;43.20
61591;DHT22;57639;52.410;-1.966;2023-03-11T12:36:22;15.80;42.90
61591;DHT22;57639;52.410;-1.966;2023-03-11T12:39:35;16.10;42.50
61591;DHT22;57639;52.410;-1.966;2023-03-11T12:42:47;16.20;42.30
61591;DHT22;57639;52.410;-1.966;2023-03-11T12:45:53;16.40;42.00
61591;DHT22;57639;52.410;-1.966;2023-03-11T12:49:11;16.60;41.80
61591;DHT22;57639;52.410;-1.966;2023-03-11T12:52:20;16.70;41.50
61591;DHT22;57639;52.410;-1.966;2023-03-11T12:55:33;16.90;41.40
61591;DHT22;57639;52.410;-1.966;2023-03-11T12:59:03;17.10;41.10
61591;DHT22;57639;52.410;-1.966;2023-03-11T13:02:22;17.10;40.90
61591;DHT22;57639;52.410;-1.966;2023-03-11T13:05:43;17.20;40.80
61591;DHT22;57639;52.410;-1.966;2023-03-11T13:08:56;17.30;40.60
61591;DHT22;57639;52.410;-1.966;2023-03-11T13:12:40;17.30;40.50
61591;DHT22;57639;52.410;-1.966;2023-03-11T13:15:50;17.40;40.40
61591;DHT22;57639;52.410;-1.966;2023-03-11T13:19:31;17.30;40.50
61591;DHT22;57639;52.410;-1.966;2023-03-11T13:22:43;17.30;40.50
61591;DHT22;57639;52.410;-1.966;2023-03-11T13:26:33;17.30;40.50
61591;DHT22;57639;52.410;-1.966;2023-03-11T13:29:51;17.20;40.60
61591;DHT22;57639;52.410;-1.966;2023-03-11T13:33:19;17.10;40.60
61591;DHT22;57639;52.410;-1.966;2023-03-11T13:36:43;17.10;40.80
61591;DHT22;57639;52.410;-1.966;2023-03-11T13:39:57;17.00;40.90
61591;DHT22;57639;52.410;-1.966;2023-03-11T13:43:10;16.90;41.00
61591;DHT22;57639;52.410;-1.966;2023-03-11T13:46:25;16.80;41.10
61591;DHT22;57639;52.410;-1.966;2023-03-11T13:49:41;16.80;41.10
61591;DHT22;57639;52.410;-1.966;2023-03-11T13:52:50;16.70;41.30
61591;DHT22;57639;52.410;-1.966;2023-03-11T13:55:57;16.60;41.30
61591;DHT22;57639;52.410;-1.966;2023-03-11T13:59:16;16.60;41.40
61591;DHT22;57639;52.410;-1.966;2023-03-11T14:02:24;16.50;41.60
61591;DHT22;57639;52.410;-1.966;2023-03-11T14:05:35;16.50;41.70
61591;DHT22;57639;52.410;-1.966;2023-03-11T14:08:42;16.40;41.90
61591;DHT22;57639;52.410;-1.966;2023-03-11T14:12:04;16.30;41.80
61591;DHT22;57639;52.410;-1.966;2023-03-11T14:15:14;16.20;41.90
61591;DHT22;57639;52.410;-1.966;2023-03-11T14:18:25;16.20;42.00
61591;DHT22;57639;52.410;-1.966;2023-03-11T14:21:34;16.10;42.10
61591;DHT22;57639;52.410;-1.966;2023-03-11T14:24:46;16.00;42.30
61591;DHT22;57639;52.410;-1.966;2023-03-11T14:27:54;16.10;42.80
61591;DHT22;57639;52.410;-1.966;2023-03-11T14:31:02;16.10;42.60
61591;DHT22;57639;52.410;-1.966;2023-03-11T14:34:16;16.00;42.70
61591;DHT22;57639;52.410;-1.966;2023-03-11T14:37:30;15.90;42.80
61591;DHT22;57639;52.410;-1.966;2023-03-11T14:40:37;15.90;43.20
61591;DHT22;57639;52.410;-1.966;2023-03-11T14:43:46;15.80;43.60
61591;DHT22;57639;52.410;-1.966;2023-03-11T14:47:00;15.80;43.90
61591;DHT22;57639;52.410;-1.966;2023-03-11T14:50:12;15.70;44.30
61591;DHT22;57639;52.410;-1.966;2023-03-11T14:53:24;15.70;44.10
61591;DHT22;57639;52.410;-1.966;2023-03-11T14:56:35;15.70;44.20
61591;DHT22;57639;52.410;-1.966;2023-03-11T14:59:43;15.70;44.30
61591;DHT22;57639;52.410;-1.966;2023-03-11T15:03:00;15.60;44.40
61591;DHT22;57639;52.410;-1.966;2023-03-11T15:06:12;15.60;44.60
61591;DHT22;57639;52.410;-1.966;2023-03-11T15:09:23;15.60;44.70
61591;DHT22;57639;52.410;-1.966;2023-03-11T15:12:32;15.50;44.90
61591;DHT22;57639;52.410;-1.966;2023-03-11T15:15:38;15.50;44.90
61591;DHT22;57639;52.410;-1.966;2023-03-11T15:18:44;15.50;45.10
61591;DHT22;57639;52.410;-1.966;2023-03-11T15:21:51;15.40;45.10
61591;DHT22;57639;52.410;-1.966;2023-03-11T15:25:14;15.40;45.30
61591;DHT22;57639;52.410;-1.966;2023-03-11T15:28:22;15.40;45.30
61591;DHT22;57639;52.410;-1.966;2023-03-11T15:31:32;15.40;45.40
61591;DHT22;57639;52.410;-1.966;2023-03-11T15:34:38;15.30;45.50
61591;DHT22;57639;52.410;-1.966;2023-03-11T15:37:45;15.30;45.50
61591;DHT22;57639;52.410;-1.966;2023-03-11T15:40:57;15.30;45.60
61591;DHT22;57639;52.410;-1.966;2023-03-11T15:44:13;15.30;45.50
61591;DHT22;57639;52.410;-1.966;2023-03-11T15:47:22;15.20;45.60
61591;DHT22;57639;52.410;-1.966;2023-03-11T15:50:28;15.20;45.60
61591;DHT22;57639;52.410;-1.966;2023-03-11T15:53:35;15.20;45.80
61591;DHT22;57639;52.410;-1.966;2023-03-11T15:56:44;15.20;45.70
61591;DHT22;57639;52.410;-1.966;2023-03-11T15:59:51;15.20;45.80
61591;DHT22;57639;52.410;-1.966;2023-03-11T16:02:58;15.20;45.70
61591;DHT22;57639;52.410;-1.966;2023-03-11T16:06:04;15.20;45.60
61591;DHT22;57639;52.410;-1.966;2023-03-11T16:09:11;15.20;45.90
61591;DHT22;57639;52.410;-1.966;2023-03-11T16:12:21;15.30;45.90
61591;DHT22;57639;52.410;-1.966;2023-03-11T16:15:28;15.40;46.00
61591;DHT22;57639;52.410;-1.966;2023-03-11T16:18:34;15.40;46.00
61591;DHT22;57639;52.410;-1.966;2023-03-11T16:21:42;15.40;46.30
61591;DHT22;57639;52.410;-1.966;2023-03-11T16:24:52;15.40;46.00
61591;DHT22;57639;52.410;-1.966;2023-03-11T16:27:59;15.30;45.90
61591;DHT22;57639;52.410;-1.966;2023-03-11T16:31:06;15.20;46.20
61591;DHT22;57639;52.410;-1.966;2023-03-11T16:34:12;15.10;46.10
61591;DHT22;57639;52.410;-1.966;2023-03-11T16:37:19;15.10;46.20
61591;DHT22;57639;52.410;-1.966;2023-03-11T16:40:27;15.00;46.20
61591;DHT22;57639;52.410;-1.966;2023-03-11T16:43:37;15.00;46.50
61591;DHT22;57639;52.410;-1.966;2023-03-11T16:46:43;15.00;46.50
61591;DHT22;57639;52.410;-1.966;2023-03-11T16:49:49;14.90;46.40
61591;DHT22;57639;52.410;-1.966;2023-03-11T16:52:56;14.90;46.40
61591;DHT22;57639;52.410;-1.966;2023-03-11T16:56:04;14.80;46.50
61591;DHT22;57639;52.410;-1.966;2023-03-11T16:59:13;14.70;46.30
61591;DHT22;57639;52.410;-1.966;2023-03-11T17:02:19;14.80;46.20
61591;DHT22;57639;52.410;-1.966;2023-03-11T17:05:26;14.70;46.10
61591;DHT22;57639;52.410;-1.966;2023-03-11T17:08:32;14.70;46.10
61591;DHT22;57639;52.410;-1.966;2023-03-11T17:11:38;14.70;46.00
61591;DHT22;57639;52.410;-1.966;2023-03-11T17:14:47;14.70;45.90
61591;DHT22;57639;52.410;-1.966;2023-03-11T17:17:53;14.70;45.90
61591;DHT22;57639;52.410;-1.966;2023-03-11T17:20:59;14.60;45.90
61591;DHT22;57639;52.410;-1.966;2023-03-11T17:24:06;14.70;46.40
61591;DHT22;57639;52.410;-1.966;2023-03-11T17:27:13;14.70;46.40
61591;DHT22;57639;52.410;-1.966;2023-03-11T17:30:22;14.60;46.50
61591;DHT22;57639;52.410;-1.966;2023-03-11T17:33:28;14.60;46.50
61591;DHT22;57639;52.410;-1.966;2023-03-11T17:36:35;14.60;46.50
61591;DHT22;57639;52.410;-1.966;2023-03-11T17:39:40;14.60;46.50
61591;DHT22;57639;52.410;-1.966;2023-03-11T17:42:47;14.60;46.60
61591;DHT22;57639;52.410;-1.966;2023-03-11T17:45:55;14.60;46.60
61591;DHT22;57639;52.410;-1.966;2023-03-11T17:49:02;14.60;46.70
61591;DHT22;57639;52.410;-1.966;2023-03-11T17:52:08;14.50;46.70
61591;DHT22;57639;52.410;-1.966;2023-03-11T17:55:15;14.50;46.80
61591;DHT22;57639;52.410;-1.966;2023-03-11T17:58:21;14.50;46.90
61591;DHT22;57639;52.410;-1.966;2023-03-11T18:01:30;14.50;46.70
61591;DHT22;57639;52.410;-1.966;2023-03-11T18:04:36;14.50;46.70
61591;DHT22;57639;52.410;-1.966;2023-03-11T18:07:43;14.50;46.80
61591;DHT22;57639;52.410;-1.966;2023-03-11T18:10:50;14.40;46.70
61591;DHT22;57639;52.410;-1.966;2023-03-11T18:13:56;14.50;46.50
61591;DHT22;57639;52.410;-1.966;2023-03-11T18:17:05;14.50;46.60
61591;DHT22;57639;52.410;-1.966;2023-03-11T18:20:12;14.60;46.60
61591;DHT22;57639;52.410;-1.966;2023-03-11T18:23:18;14.80;46.40
61591;DHT22;57639;52.410;-1.966;2023-03-11T18:26:26;15.00;46.10
61591;DHT22;57639;52.410;-1.966;2023-03-11T18:29:33;15.20;45.80
61591;DHT22;57639;52.410;-1.966;2023-03-11T18:32:41;15.50;45.40
61591;DHT22;57639;52.410;-1.966;2023-03-11T18:35:48;15.80;45.00
61591;DHT22;57639;52.410;-1.966;2023-03-11T18:38:56;16.00;44.60
61591;DHT22;57639;52.410;-1.966;2023-03-11T18:42:00;16.20;44.20
61591;DHT22;57639;52.410;-1.966;2023-03-11T18:45:08;16.50;44.00
61591;DHT22;57639;52.410;-1.966;2023-03-11T18:48:18;16.60;43.70
61591;DHT22;57639;52.410;-1.966;2023-03-11T18:51:25;16.80;43.40
61591;DHT22;57639;52.410;-1.966;2023-03-11T18:54:31;17.00;43.20
61591;DHT22;57639;52.410;-1.966;2023-03-11T18:57:38;17.10;42.90
61591;DHT22;57639;52.410;-1.966;2023-03-11T19:00:45;17.20;42.70
61591;DHT22;57639;52.410;-1.966;2023-03-11T19:03:55;17.30;42.60
61591;DHT22;57639;52.410;-1.966;2023-03-11T19:07:01;17.40;42.50
61591;DHT22;57639;52.410;-1.966;2023-03-11T19:10:09;17.50;42.30
61591;DHT22;57639;52.410;-1.966;2023-03-11T19:13:17;17.50;42.20
61591;DHT22;57639;52.410;-1.966;2023-03-11T19:16:25;17.50;42.10
61591;DHT22;57639;52.410;-1.966;2023-03-11T19:19:34;17.50;42.10
61591;DHT22;57639;52.410;-1.966;2023-03-11T19:22:40;17.50;42.20
61591;DHT22;57639;52.410;-1.966;2023-03-11T19:25:46;17.40;42.10
61591;DHT22;57639;52.410;-1.966;2023-03-11T19:28:52;17.30;42.30
61591;DHT22;57639;52.410;-1.966;2023-03-11T19:31:59;17.30;42.40
61591;DHT22;57639;52.410;-1.966;2023-03-11T19:35:09;17.30;42.60
61591;DHT22;57639;52.410;-1.966;2023-03-11T19:38:17;17.20;42.60